createdAt,value
2023-05-26T00:01:17.539Z,9.70
2023-05-26T00:03:50.174Z,9.70
2023-05-26T00:06:21.956Z,10.10
2023-05-26T00:08:49.635Z,10.32
2023-05-26T00:11:17.631Z,10.65
2023-05-26T00:13:45.218Z,9.55
2023-05-26T00:16:12.865Z,10.25
2023-05-26T00:18:40.761Z,9.15
2023-05-26T00:21:08.279Z,10.75
2023-05-26T00:23:35.923Z,10.35
2023-05-26T00:26:04.447Z,10.80
2023-05-26T00:28:32.001Z,10.57
2023-05-26T00:30:59.578Z,11.02
2023-05-26T00:33:27.131Z,10.73
2023-05-26T00:35:54.793Z,10.65
2023-05-26T00:38:22.506Z,9.05
2023-05-26T00:40:50.879Z,9.85
2023-05-26T00:43:18.489Z,9.88
2023-05-26T00:45:46.219Z,9.60
2023-05-26T00:48:13.886Z,8.57
2023-05-26T00:50:41.635Z,8.90
2023-05-26T00:53:09.711Z,8.65
2023-05-26T00:55:37.484Z,8.40
2023-05-26T00:58:06.242Z,7.38
2023-05-26T01:00:34.990Z,7.38
2023-05-26T01:03:03.416Z,8.05
2023-05-26T01:05:31.408Z,6.82
2023-05-26T01:07:59.217Z,6.65
2023-05-26T01:10:28.513Z,6.93
2023-05-26T01:13:00.080Z,6.47
2023-05-26T01:15:31.162Z,6.32
2023-05-26T01:18:22.350Z,6.82
2023-05-26T01:20:58.393Z,6.23
2023-05-26T01:23:28.762Z,6.78
2023-05-26T01:26:07.051Z,6.53
2023-05-26T01:28:34.802Z,6.10
2023-05-26T01:31:02.536Z,6.63
2023-05-26T01:33:30.174Z,6.47
2023-05-26T01:35:58.507Z,6.53
2023-05-26T01:38:26.217Z,6.03
2023-05-26T01:40:59.006Z,5.65
2023-05-26T01:43:36.055Z,5.72
2023-05-26T01:46:17.941Z,6.20
2023-05-26T01:48:46.503Z,6.60
2023-05-26T01:51:15.458Z,6.00
2023-05-26T01:53:43.996Z,6.20
2023-05-26T01:56:11.822Z,6.32
2023-05-26T01:58:39.902Z,6.40
2023-05-26T02:01:08.147Z,5.88
2023-05-26T02:03:37.044Z,6.65
2023-05-26T02:06:05.223Z,6.35
2023-05-26T02:08:34.151Z,5.70
2023-05-26T02:11:01.722Z,6.00
2023-05-26T02:13:29.409Z,5.53
2023-05-26T02:15:57.074Z,6.70
2023-05-26T02:18:25.947Z,5.85
2023-05-26T02:20:54.075Z,5.78
2023-05-26T02:23:21.854Z,6.68
2023-05-26T02:25:49.784Z,5.95
2023-05-26T02:28:17.388Z,6.25
2023-05-26T02:30:44.984Z,6.50
2023-05-26T02:33:12.644Z,6.00
2023-05-26T02:35:42.235Z,6.55
2023-05-26T02:38:09.783Z,7.00
2023-05-26T02:40:37.360Z,6.07
2023-05-26T02:43:05.173Z,7.00
2023-05-26T02:45:32.793Z,7.28
2023-05-26T02:48:00.544Z,6.60
2023-05-26T02:50:28.196Z,7.05
2023-05-26T02:52:55.837Z,7.78
2023-05-26T02:55:25.911Z,7.35
2023-05-26T02:57:53.696Z,7.50
2023-05-26T03:00:21.516Z,7.82
2023-05-26T03:02:49.227Z,8.10
2023-05-26T03:05:16.918Z,7.70
2023-05-26T03:07:46.112Z,7.28
2023-05-26T03:10:13.724Z,7.85
2023-05-26T03:12:41.571Z,7.38
2023-05-26T03:15:09.509Z,7.03
2023-05-26T03:17:37.358Z,7.25
2023-05-26T03:20:05.389Z,7.78
2023-05-26T03:22:41.663Z,7.68
2023-05-26T03:25:16.460Z,7.28
2023-05-26T03:27:48.234Z,8.30
2023-05-26T03:30:16.102Z,7.40
2023-05-26T03:32:45.789Z,8.48
2023-05-26T03:35:13.703Z,7.75
2023-05-26T03:37:41.342Z,7.35
2023-05-26T03:40:10.871Z,7.78
2023-05-26T03:42:39.030Z,8.38
2023-05-26T03:45:06.852Z,8.23
2023-05-26T03:47:34.626Z,8.60
2023-05-26T03:50:05.230Z,7.65
2023-05-26T03:52:37.414Z,7.80
2023-05-26T03:55:07.035Z,8.35
2023-05-26T03:57:35.268Z,8.00
2023-05-26T04:00:05.323Z,8.52
2023-05-26T04:02:33.896Z,7.55
2023-05-26T04:05:04.331Z,7.63
2023-05-26T04:07:32.019Z,7.60
2023-05-26T04:09:59.635Z,8.18
2023-05-26T04:12:27.264Z,7.35
2023-05-26T04:14:57.047Z,7.22
2023-05-26T04:17:24.743Z,7.40
2023-05-26T04:19:54.065Z,8.75
2023-05-26T04:22:21.768Z,7.88
2023-05-26T04:24:49.607Z,7.30
2023-05-26T04:27:25.717Z,7.95
2023-05-26T04:30:12.857Z,8.00
2023-05-26T04:32:52.057Z,7.00
2023-05-26T04:35:44.509Z,15.95
2023-05-26T04:38:16.192Z,7.72
2023-05-26T04:40:44.133Z,7.93
2023-05-26T04:43:12.669Z,7.00
2023-05-26T04:45:43.324Z,7.60
2023-05-26T04:48:14.804Z,7.10
2023-05-26T04:50:42.800Z,7.70
2023-05-26T04:53:11.521Z,7.88
2023-05-26T04:55:39.202Z,6.72
2023-05-26T04:58:09.423Z,7.15
2023-05-26T05:00:37.599Z,7.53
2023-05-26T05:03:43.947Z,6.85
2023-05-26T05:06:17.802Z,7.15
2023-05-26T05:08:45.581Z,6.72
2023-05-26T05:11:15.819Z,7.55
2023-05-26T05:13:46.204Z,7.20
2023-05-26T05:16:15.519Z,7.80
2023-05-26T05:18:43.218Z,7.25
2023-05-26T05:21:11.014Z,7.85
2023-05-26T05:23:39.190Z,7.28
2023-05-26T05:26:06.898Z,7.97
2023-05-26T05:28:36.301Z,7.47
2023-05-26T05:31:13.807Z,8.45
2023-05-26T05:33:41.512Z,7.90
2023-05-26T05:36:12.236Z,7.53
2023-05-26T05:38:40.721Z,7.13
2023-05-26T05:41:08.308Z,7.70
2023-05-26T05:43:35.937Z,7.88
2023-05-26T05:46:03.734Z,7.25
2023-05-26T05:48:34.332Z,7.18
2023-05-26T05:51:10.543Z,7.78
2023-05-26T05:53:38.276Z,9.50
2023-05-26T05:56:06.144Z,8.27
2023-05-26T05:58:35.314Z,8.27
2023-05-26T06:01:02.965Z,8.38
2023-05-26T06:03:31.336Z,7.40
2023-05-26T06:05:58.959Z,8.50
2023-05-26T06:08:26.554Z,8.02
2023-05-26T06:10:54.263Z,8.30
2023-05-26T06:13:23.532Z,7.72
2023-05-26T06:15:51.302Z,8.10
2023-05-26T06:18:20.497Z,7.00
2023-05-26T06:20:49.213Z,7.93
2023-05-26T06:23:17.056Z,7.88
2023-05-26T06:25:45.026Z,7.70
2023-05-26T06:28:15.920Z,7.23
2023-05-26T06:30:44.374Z,8.55
2023-05-26T06:33:32.108Z,7.50
2023-05-26T06:36:01.122Z,8.50
2023-05-26T06:38:29.064Z,8.13
2023-05-26T06:41:01.533Z,8.45
2023-05-26T06:43:29.375Z,8.18
2023-05-26T06:45:57.390Z,8.13
2023-05-26T06:48:25.581Z,7.72
2023-05-26T06:51:13.495Z,7.60
2023-05-26T06:53:44.915Z,8.52
2023-05-26T06:56:13.634Z,8.63
2023-05-26T06:58:41.266Z,8.35
2023-05-26T07:01:10.014Z,8.60
2023-05-26T07:03:40.655Z,8.15
2023-05-26T07:06:09.019Z,8.82
2023-05-26T07:08:39.894Z,8.23
2023-05-26T07:11:20.478Z,8.48
2023-05-26T07:13:53.836Z,8.95
2023-05-26T07:16:22.657Z,9.02
2023-05-26T07:18:50.367Z,8.82
2023-05-26T07:21:22.812Z,9.68
2023-05-26T07:23:51.567Z,9.15
2023-05-26T07:26:23.980Z,9.35
2023-05-26T07:28:52.312Z,8.77
2023-05-26T07:31:20.917Z,9.02
2023-05-26T07:33:52.045Z,9.10
2023-05-26T07:36:20.237Z,9.48
2023-05-26T07:38:48.134Z,9.43
2023-05-26T07:41:15.819Z,8.88
2023-05-26T07:43:43.581Z,9.77
2023-05-26T07:46:11.401Z,10.60
2023-05-26T07:48:39.164Z,10.52
2023-05-26T07:51:06.750Z,9.63
2023-05-26T07:53:35.713Z,10.02
2023-05-26T07:56:03.738Z,9.50
2023-05-26T07:58:39.872Z,9.90
2023-05-26T08:01:08.234Z,9.90
2023-05-26T08:03:36.208Z,10.13
2023-05-26T08:06:24.454Z,9.52
2023-05-26T08:08:54.150Z,8.85
2023-05-26T08:11:23.903Z,9.30
2023-05-26T08:13:51.842Z,9.52
2023-05-26T08:16:19.864Z,8.75
2023-05-26T08:18:47.551Z,9.68
2023-05-26T08:21:15.161Z,9.35
2023-05-26T08:23:43.064Z,10.13
2023-05-26T08:26:10.974Z,9.57
2023-05-26T08:28:38.868Z,8.95
2023-05-26T08:31:06.783Z,9.25
2023-05-26T08:33:34.531Z,9.10
2023-05-26T08:36:02.289Z,9.10
2023-05-26T08:38:31.536Z,8.50
2023-05-26T08:40:59.897Z,8.65
2023-05-26T08:43:53.503Z,7.78
2023-05-26T08:46:28.614Z,8.90
2023-05-26T08:48:58.806Z,9.85
2023-05-26T08:51:30.415Z,8.90
2023-05-26T08:56:26.113Z,8.63
2023-05-26T08:59:02.112Z,8.82
2023-05-26T09:01:29.839Z,8.55
2023-05-26T09:03:57.698Z,8.32
2023-05-26T09:06:25.493Z,8.80
2023-05-26T09:08:55.958Z,9.15
2023-05-26T09:11:29.308Z,7.75
2023-05-26T09:13:57.667Z,8.25
2023-05-26T09:16:26.558Z,9.18
2023-05-26T09:18:58.575Z,7.95
2023-05-26T09:21:30.633Z,7.47
2023-05-26T09:23:59.588Z,8.15
2023-05-26T09:26:34.214Z,9.25
2023-05-26T09:29:03.226Z,9.13
2023-05-26T09:31:45.844Z,8.20
2023-05-26T09:34:14.818Z,8.75
2023-05-26T09:36:43.063Z,9.30
2023-05-26T09:39:11.580Z,8.20
2023-05-26T09:41:45.927Z,9.85
2023-05-26T09:44:13.841Z,8.93
2023-05-26T09:46:42.517Z,8.70
2023-05-26T09:49:13.635Z,8.90
2023-05-26T09:51:46.761Z,7.75
2023-05-26T09:54:23.104Z,8.07
2023-05-26T09:56:57.070Z,8.00
2023-05-26T09:59:30.450Z,7.65
2023-05-26T10:01:58.415Z,7.65
2023-05-26T10:04:26.773Z,7.47
2023-05-26T10:06:58.126Z,7.00
2023-05-26T10:09:27.165Z,7.43
2023-05-26T10:11:58.658Z,6.85
2023-05-26T10:14:26.469Z,5.90
2023-05-26T10:16:58.340Z,7.00
2023-05-26T10:19:29.123Z,6.60
2023-05-26T10:21:58.995Z,6.90
2023-05-26T10:24:36.007Z,6.30
2023-05-26T10:27:15.578Z,6.65
2023-05-26T10:29:48.217Z,6.40
2023-05-26T10:32:36.059Z,7.35
2023-05-26T10:35:20.940Z,7.60
2023-05-26T10:37:58.882Z,6.65
2023-05-26T10:40:28.725Z,6.80
2023-05-26T10:43:00.550Z,6.55
2023-05-26T10:47:59.670Z,6.40
2023-05-26T10:50:27.356Z,6.45
2023-05-26T10:52:57.369Z,5.95
2023-05-26T10:55:50.956Z,6.53
2023-05-26T10:58:37.367Z,5.60
2023-05-26T11:01:08.326Z,6.07
2023-05-26T11:03:37.712Z,6.07
2023-05-26T11:06:06.258Z,5.68
2023-05-26T11:08:38.127Z,5.13
2023-05-26T11:11:06.995Z,6.72
2023-05-26T11:13:44.968Z,6.70
2023-05-26T11:16:13.287Z,5.97
2023-05-26T11:18:41.592Z,5.72
2023-05-26T11:21:09.283Z,6.53
2023-05-26T11:23:38.930Z,5.90
2023-05-26T11:26:13.328Z,6.43
2023-05-26T11:28:44.939Z,5.07
2023-05-26T11:31:12.778Z,5.47
2023-05-26T11:33:43.483Z,5.78
2023-05-26T11:36:13.238Z,7.25
2023-05-26T11:38:41.886Z,5.78
2023-05-26T11:41:10.052Z,6.05
2023-05-26T11:43:40.904Z,5.72
2023-05-26T11:46:10.467Z,5.85
2023-05-26T11:48:40.721Z,5.93
2023-05-26T11:51:16.358Z,5.93
2023-05-26T11:53:46.142Z,5.53
2023-05-26T11:56:15.385Z,5.75
2023-05-26T11:58:44.568Z,6.22
2023-05-26T12:01:12.485Z,6.10
2023-05-26T12:03:41.910Z,5.28
2023-05-26T12:06:19.908Z,6.07
2023-05-26T12:08:47.485Z,5.20
2023-05-26T12:11:16.081Z,5.43
2023-05-26T12:13:43.753Z,5.43
2023-05-26T12:16:25.445Z,5.63
2023-05-26T12:18:54.074Z,5.35
2023-05-26T12:21:22.124Z,5.90
2023-05-26T12:23:49.811Z,6.18
2023-05-26T12:26:27.127Z,5.68
2023-05-26T12:29:08.208Z,5.05
2023-05-26T12:31:39.597Z,5.40
2023-05-26T12:34:07.868Z,5.32
2023-05-26T12:36:35.603Z,5.35
2023-05-26T12:39:03.660Z,5.07
2023-05-26T12:41:31.359Z,5.38
2023-05-26T12:44:02.284Z,5.70
2023-05-26T12:46:30.529Z,4.88
2023-05-26T12:48:58.840Z,4.97
2023-05-26T12:51:27.979Z,5.25
2023-05-26T12:53:58.264Z,5.22
2023-05-26T12:56:27.646Z,5.13
2023-05-26T12:59:09.576Z,5.45
2023-05-26T13:01:45.914Z,4.68
2023-05-26T13:04:13.706Z,4.88
2023-05-26T13:06:41.685Z,5.53
2023-05-26T13:09:11.159Z,5.63
2023-05-26T13:11:39.414Z,5.13
2023-05-26T13:14:07.163Z,4.85
2023-05-26T13:16:34.980Z,5.70
2023-05-26T13:19:02.698Z,5.30
2023-05-26T13:21:30.479Z,4.78
2023-05-26T13:23:58.654Z,5.43
2023-05-26T13:26:26.787Z,5.05
2023-05-26T13:28:55.034Z,4.70
2023-05-26T13:31:25.978Z,5.60
2023-05-26T13:33:56.528Z,5.35
2023-05-26T13:36:24.627Z,5.15
2023-05-26T13:38:52.587Z,5.03
2023-05-26T13:41:20.577Z,4.72
2023-05-26T13:43:48.476Z,5.05
2023-05-26T13:46:16.231Z,4.85
2023-05-26T13:48:44.104Z,5.28
2023-05-26T13:51:12.326Z,5.07
2023-05-26T13:53:41.115Z,4.63
2023-05-26T13:58:47.453Z,5.20
2023-05-26T13:58:57.266Z,5.25
2023-05-26T14:03:55.897Z,4.80
2023-05-26T14:06:23.996Z,4.93
2023-05-26T14:08:51.853Z,4.85
2023-05-26T14:11:19.780Z,5.32
2023-05-26T14:13:47.574Z,4.63
2023-05-26T14:16:16.481Z,5.07
2023-05-26T14:19:04.896Z,4.57
2023-05-26T14:22:05.508Z,5.28
2023-05-26T14:24:19.916Z,4.70
2023-05-26T14:26:47.840Z,4.93
2023-05-26T14:29:16.330Z,5.05
2023-05-26T14:31:46.516Z,4.85
2023-05-26T14:34:14.472Z,5.05
2023-05-26T14:36:42.159Z,4.95
2023-05-26T14:39:11.786Z,5.43
2023-05-26T14:41:39.734Z,4.72
2023-05-26T14:44:07.646Z,5.13
2023-05-26T14:46:35.526Z,5.07
2023-05-26T14:49:04.446Z,4.82
2023-05-26T14:51:34.530Z,5.28
2023-05-26T14:54:02.360Z,5.10
2023-05-26T14:56:30.139Z,5.03
2023-05-26T14:58:57.984Z,4.78
2023-05-26T15:01:28.587Z,5.28
2023-05-26T15:04:13.262Z,4.75
2023-05-26T15:06:43.224Z,5.10
2023-05-26T15:09:11.010Z,5.18
2023-05-26T15:11:38.635Z,5.10
2023-05-26T15:14:07.122Z,5.43
2023-05-26T15:16:35.442Z,5.35
2023-05-26T15:19:03.452Z,4.65
2023-05-26T15:24:04.439Z,5.30
2023-05-26T15:26:33.251Z,5.63
2023-05-26T15:29:00.878Z,4.70
2023-05-26T15:31:28.665Z,4.93
2023-05-26T15:33:56.301Z,5.45
2023-05-26T15:36:24.637Z,4.78
2023-05-26T15:38:56.757Z,5.30
2023-05-26T15:41:30.106Z,4.72
2023-05-26T15:43:58.176Z,4.60
2023-05-26T15:46:26.121Z,4.75
2023-05-26T15:48:53.949Z,4.50
2023-05-26T15:51:21.683Z,4.30
2023-05-26T15:53:49.413Z,4.78
2023-05-26T15:56:17.244Z,4.80
2023-05-26T15:58:45.101Z,4.70
2023-05-26T16:01:17.490Z,4.68
2023-05-26T16:03:45.329Z,5.03
2023-05-26T16:06:13.829Z,4.55
2023-05-26T16:08:45.075Z,4.93
2023-05-26T16:11:13.752Z,5.28
2023-05-26T16:13:41.528Z,4.53
2023-05-26T16:16:10.317Z,5.03
2023-05-26T16:18:38.184Z,5.05
2023-05-26T16:21:06.190Z,4.43
2023-05-26T16:23:34.557Z,4.68
2023-05-26T16:26:02.574Z,4.72
2023-05-26T16:28:30.321Z,4.95
2023-05-26T16:31:01.071Z,5.18
2023-05-26T16:33:28.878Z,4.87
2023-05-26T16:35:56.929Z,5.00
2023-05-26T16:38:27.689Z,5.15
2023-05-26T16:40:55.482Z,4.63
2023-05-26T16:43:36.423Z,4.55
2023-05-26T16:46:12.060Z,5.07
2023-05-26T16:48:40.040Z,4.68
2023-05-26T16:51:07.835Z,5.55
2023-05-26T16:53:35.732Z,5.35
2023-05-26T16:56:03.540Z,5.32
2023-05-26T16:58:31.209Z,4.75
2023-05-26T17:00:58.940Z,4.88
2023-05-26T17:03:28.162Z,4.97
2023-05-26T17:05:56.076Z,5.00
2023-05-26T17:08:24.281Z,4.80
2023-05-26T17:10:54.928Z,4.28
2023-05-26T17:13:22.756Z,5.13
2023-05-26T17:15:50.393Z,4.82
2023-05-26T17:18:18.091Z,4.80
2023-05-26T17:20:47.830Z,4.60
2023-05-26T17:23:15.596Z,4.55
2023-05-26T17:25:43.417Z,4.68
2023-05-26T17:28:11.154Z,5.20
2023-05-26T17:30:38.771Z,5.18
2023-05-26T17:33:06.566Z,4.53
2023-05-26T17:35:34.318Z,4.15
2023-05-26T17:38:02.134Z,4.40
2023-05-26T17:40:30.117Z,4.80
2023-05-26T17:42:57.762Z,4.60
2023-05-26T17:45:25.476Z,5.00
2023-05-26T17:47:53.233Z,4.97
2023-05-26T17:50:21.205Z,4.78
2023-05-26T17:52:48.902Z,5.10
2023-05-26T17:55:18.989Z,4.95
2023-05-26T17:57:46.726Z,4.68
2023-05-26T18:00:14.982Z,4.60
2023-05-26T18:02:42.696Z,4.70
2023-05-26T18:05:10.574Z,4.90
2023-05-26T18:07:38.419Z,5.00
2023-05-26T18:10:06.233Z,5.03
2023-05-26T18:12:33.834Z,5.03
2023-05-26T18:15:01.511Z,4.93
2023-05-26T18:17:31.102Z,4.72
2023-05-26T18:19:58.725Z,5.32
2023-05-26T18:22:26.406Z,4.95
2023-05-26T18:24:53.972Z,4.80
2023-05-26T18:27:21.630Z,4.65
2023-05-26T18:29:49.264Z,5.25
2023-05-26T18:32:17.302Z,4.78
2023-05-26T18:34:44.927Z,4.68
2023-05-26T18:37:13.060Z,5.65
2023-05-26T18:39:40.700Z,5.75
2023-05-26T18:42:08.467Z,5.10
2023-05-26T18:44:36.172Z,5.25
2023-05-26T18:47:03.868Z,5.00
2023-05-26T18:49:31.569Z,5.35
2023-05-26T18:51:59.526Z,4.90
2023-05-26T18:54:28.576Z,5.13
2023-05-26T18:56:56.989Z,5.03
2023-05-26T18:59:24.906Z,5.47
2023-05-26T19:01:52.552Z,5.60
2023-05-26T19:04:20.483Z,5.45
2023-05-26T19:06:48.218Z,4.95
2023-05-26T19:09:18.480Z,5.10
2023-05-26T19:11:47.039Z,5.50
2023-05-26T19:14:15.232Z,5.70
2023-05-26T19:16:42.861Z,5.75
2023-05-26T19:19:10.860Z,5.07
2023-05-26T19:21:38.606Z,5.78
2023-05-26T19:24:07.459Z,6.53
2023-05-26T19:26:35.584Z,6.13
2023-05-26T19:29:04.948Z,5.25
2023-05-26T19:31:33.643Z,5.55
2023-05-26T19:34:01.831Z,5.82
2023-05-26T19:36:29.930Z,6.43
2023-05-26T19:38:57.865Z,5.75
2023-05-26T19:41:27.253Z,5.68
2023-05-26T19:43:55.377Z,5.18
2023-05-26T19:46:23.106Z,5.25
2023-05-26T19:48:50.889Z,6.43
2023-05-26T19:51:18.586Z,5.85
2023-05-26T19:53:46.242Z,5.68
2023-05-26T19:56:13.876Z,5.90
2023-05-26T19:58:41.566Z,5.28
2023-05-26T20:01:09.207Z,5.63
2023-05-26T20:03:36.953Z,5.82
2023-05-26T20:06:05.429Z,5.72
2023-05-26T20:08:33.687Z,5.93
2023-05-26T20:11:01.616Z,5.90
2023-05-26T20:13:29.262Z,6.35
2023-05-26T20:15:57.075Z,6.13
2023-05-26T20:18:25.156Z,6.15
2023-05-26T20:20:52.947Z,5.63
2023-05-26T20:23:20.744Z,5.90
2023-05-26T20:25:48.361Z,5.75
2023-05-26T20:28:16.899Z,6.20
2023-05-26T20:30:44.686Z,5.80
2023-05-26T20:33:12.437Z,6.25
2023-05-26T20:35:40.109Z,6.00
2023-05-26T20:38:07.703Z,6.63
2023-05-26T20:40:35.370Z,5.90
2023-05-26T20:43:03.284Z,6.07
2023-05-26T20:45:31.048Z,6.68
2023-05-26T20:47:58.904Z,6.18
2023-05-26T20:50:27.005Z,6.10
2023-05-26T20:52:54.633Z,6.03
2023-05-26T20:55:22.519Z,6.00
2023-05-26T20:57:50.215Z,6.63
2023-05-26T21:00:18.517Z,6.10
2023-05-26T21:02:46.227Z,6.28
2023-05-26T21:05:13.900Z,5.40
2023-05-26T21:07:42.319Z,6.03
2023-05-26T21:10:10.054Z,5.45
2023-05-26T21:12:37.682Z,5.45
2023-05-26T21:15:05.762Z,6.30
2023-05-26T21:17:33.519Z,6.70
2023-05-26T21:20:01.444Z,5.55
2023-05-26T21:22:29.098Z,5.72
2023-05-26T21:24:56.758Z,5.50
2023-05-26T21:27:24.404Z,5.90
2023-05-26T21:29:53.033Z,5.50
2023-05-26T21:32:20.851Z,6.00
2023-05-26T21:34:48.503Z,5.95
2023-05-26T21:37:16.107Z,6.45
2023-05-26T21:39:43.722Z,5.55
2023-05-26T21:42:11.370Z,5.68
2023-05-26T21:44:38.980Z,6.05
2023-05-26T21:47:06.758Z,5.65
2023-05-26T21:49:34.406Z,5.38
2023-05-26T21:52:02.107Z,5.28
2023-05-26T21:54:29.753Z,6.00
2023-05-26T21:56:57.396Z,5.53
2023-05-26T21:59:25.054Z,5.68
2023-05-26T22:01:52.973Z,6.43
2023-05-26T22:04:20.639Z,5.35
2023-05-26T22:06:48.490Z,5.85
2023-05-26T22:09:16.143Z,5.90
2023-05-26T22:11:43.861Z,5.65
2023-05-26T22:14:21.894Z,5.90
2023-05-26T22:16:52.661Z,6.17
2023-05-26T22:19:20.340Z,6.40
2023-05-26T22:21:47.961Z,6.38
2023-05-26T22:24:15.626Z,6.45
2023-05-26T22:26:43.256Z,6.50
2023-05-26T22:29:11.386Z,6.15
2023-05-26T22:31:39.325Z,5.97
2023-05-26T22:34:06.970Z,6.35
2023-05-26T22:36:34.572Z,6.75
2023-05-26T22:39:05.747Z,6.05
2023-05-26T22:41:33.449Z,6.55
2023-05-26T22:44:01.043Z,6.15
2023-05-26T22:46:28.733Z,6.63
2023-05-26T22:48:56.514Z,6.45
2023-05-26T22:51:24.414Z,6.40
2023-05-26T22:53:52.279Z,6.97
2023-05-26T22:56:20.357Z,6.47
2023-05-26T22:58:48.319Z,6.57
2023-05-26T23:01:15.947Z,6.47
2023-05-26T23:03:43.877Z,6.35
2023-05-26T23:06:11.562Z,6.72
2023-05-26T23:08:40.496Z,6.28
2023-05-26T23:11:10.133Z,6.80
2023-05-26T23:13:38.156Z,6.82
2023-05-26T23:16:06.671Z,6.07
2023-05-26T23:18:34.710Z,6.70
2023-05-26T23:21:02.424Z,6.55
2023-05-26T23:23:30.052Z,6.47
2023-05-26T23:25:58.376Z,6.45
2023-05-26T23:28:26.122Z,6.45
2023-05-26T23:30:53.770Z,6.32
2023-05-26T23:33:21.974Z,6.50
2023-05-26T23:35:50.089Z,5.97
2023-05-26T23:38:18.075Z,6.18
2023-05-26T23:40:45.735Z,7.10
2023-05-26T23:43:13.399Z,6.60
2023-05-26T23:45:41.151Z,6.72
2023-05-26T23:48:08.822Z,6.70
2023-05-26T23:50:36.811Z,5.95
2023-05-26T23:53:04.518Z,6.85
2023-05-26T23:55:32.203Z,7.18
2023-05-26T23:57:59.986Z,6.60
